Time;durP1;ratioP1;P1;durP2;ratioP2;P2;SDS_P1;SDS_P2;PMS_P1;PMS_P2;Temp;Humidity;BMP_temperature;BMP_pressure;BME280_temperature;BME280_humidity;BME280_pressure;Samples;Min_cycle;Max_cycle;Signal;HPM_P1;HPM_P2
2021/04/20 00:00:43;;;;;;;8.07;7.00;;;;;;;7.47;91.82;94346.09;5134184;27;20449;-78
2021/04/20 00:03:10;;;;;;;8.73;7.80;;;;;;;7.42;91.82;94349.06;5134224;27;20439;-78
2021/04/20 00:05:36;;;;;;;7.43;6.53;;;;;;;7.31;91.50;94345.69;5134226;27;20459;-79
2021/04/20 00:08:03;;;;;;;7.37;6.03;;;;;;;7.28;92.31;94348.56;5134409;27;20914;-78
2021/04/20 00:10:29;;;;;;;7.90;7.03;;;;;;;7.28;92.31;94349.38;5138278;27;21140;-78
2021/04/20 00:12:55;;;;;;;7.00;6.40;;;;;;;7.22;93.25;94343.81;5138661;27;20514;-78
2021/04/20 00:15:24;;;;;;;7.07;6.33;;;;;;;7.15;93.69;94346.91;5138797;27;20511;-79
2021/04/20 00:17:52;;;;;;;8.00;7.17;;;;;;;7.19;94.10;94352.72;5138256;27;20452;-78
2021/04/20 00:20:19;;;;;;;6.43;5.67;;;;;;;7.16;94.72;94350.34;5138376;27;20538;-78
2021/04/20 00:22:45;;;;;;;7.57;6.80;;;;;;;7.15;94.42;94344.31;5138468;27;20441;-78
2021/04/20 00:25:12;;;;;;;6.07;5.47;;;;;;;7.15;94.64;94351.31;5138349;27;20456;-78
2021/04/20 00:27:39;;;;;;;8.93;6.80;;;;;;;7.12;94.25;94354.97;5102172;27;20450;-78
2021/04/20 00:30:07;;;;;;;7.20;5.97;;;;;;;7.15;94.93;94349.53;5137654;27;20482;-78
2021/04/20 00:32:33;;;;;;;7.73;6.77;;;;;;;7.09;94.65;94339.59;5138095;27;20453;-78
2021/04/20 00:35:01;;;;;;;8.37;6.50;;;;;;;7.11;95.14;94336.84;5138253;27;20469;-78
2021/04/20 00:37:28;;;;;;;7.77;7.00;;;;;;;7.23;95.22;94354.16;5138074;27;20438;-78
2021/04/20 00:39:54;;;;;;;10.03;7.77;;;;;;;7.27;95.41;94344.28;5137722;27;20490;-79
2021/04/20 00:42:20;;;;;;;8.20;6.10;;;;;;;7.22;93.99;94355.06;5138209;27;20996;-78
2021/04/20 00:44:46;;;;;;;6.20;5.60;;;;;;;7.22;94.21;94360.28;5138449;27;20437;-78
2021/04/20 00:47:13;;;;;;;7.77;6.60;;;;;;;7.23;94.25;94356.75;5138024;27;20461;-78
2021/04/20 00:49:40;;;;;;;7.73;6.27;;;;;;;7.18;93.95;94358.88;5138116;27;20792;-78
2021/04/20 00:52:08;;;;;;;7.57;6.77;;;;;;;7.09;94.15;94357.00;5137485;27;20936;-78
2021/04/20 00:54:34;;;;;;;9.27;6.90;;;;;;;7.03;94.53;94357.50;5137756;27;20963;-78
2021/04/20 00:57:00;;;;;;;10.10;6.90;;;;;;;6.91;93.79;94367.13;5137725;27;20781;-78
2021/04/20 00:59:27;;;;;;;9.20;7.17;;;;;;;6.89;95.09;94362.97;5137892;27;20488;-78
2021/04/20 01:01:53;;;;;;;7.27;6.67;;;;;;;6.83;94.89;94364.28;5050985;27;20421;-78
2021/04/20 01:04:21;;;;;;;11.00;8.13;;;;;;;6.82;95.10;94363.47;5138082;27;20442;-78
2021/04/20 01:06:49;;;;;;;10.13;7.77;;;;;;;6.84;94.72;94365.94;5137068;27;20460;-78
2021/04/20 01:09:17;;;;;;;8.07;6.37;;;;;;;6.96;94.64;94364.16;5101415;27;20442;-78
2021/04/20 01:11:45;;;;;;;11.20;7.70;;;;;;;6.98;95.00;94363.09;5137395;27;20434;-78
2021/04/20 01:14:12;;;;;;;8.77;7.87;;;;;;;7.03;94.41;94365.34;5137443;27;20494;-78
2021/04/20 01:16:39;;;;;;;9.80;8.37;;;;;;;7.05;94.28;94374.69;5136915;27;20922;-78
2021/04/20 01:19:08;;;;;;;9.00;6.87;;;;;;;7.05;93.46;94368.66;5136937;27;20485;-78
2021/04/20 01:21:37;;;;;;;11.40;8.37;;;;;;;7.05;93.63;94373.88;5136586;27;20465;-78
2021/04/20 01:24:18;;;;;;;9.20;8.10;;;;;;;7.12;93.94;94382.84;5136851;27;20488;-78
2021/04/20 01:26:47;;;;;;;7.90;6.67;;;;;;;7.04;94.15;94374.81;5137547;27;20449;-78
2021/04/20 01:29:13;;;;;;;14.07;9.80;;;;;;;7.07;94.05;94374.56;5137365;27;20423;-78
2021/04/20 01:31:42;;;;;;;10.77;7.40;;;;;;;7.11;94.34;94375.97;5136920;27;20442;-78
2021/04/20 01:34:09;;;;;;;12.07;8.03;;;;;;;7.21;94.90;94387.34;5137192;27;20437;-78
2021/04/20 01:36:35;;;;;;;10.07;7.83;;;;;;;7.24;94.23;94386.28;5117813;27;20442;-78
2021/04/20 01:39:04;;;;;;;13.80;9.77;;;;;;;7.22;94.20;94382.94;5137159;27;20485;-78
2021/04/20 01:41:33;;;;;;;11.33;8.70;;;;;;;7.18;94.13;94392.78;5136912;27;20444;-79
2021/04/20 01:43:59;;;;;;;15.33;10.00;;;;;;;7.22;93.97;94391.59;5136908;27;20731;-78
2021/04/20 01:46:26;;;;;;;20.60;11.37;;;;;;;7.29;93.91;94397.19;5136898;27;20426;-78
2021/04/20 01:48:53;;;;;;;24.20;13.03;;;;;;;7.21;93.51;94400.38;5137047;27;20446;-79
2021/04/20 01:51:21;;;;;;;19.10;11.10;;;;;;;7.22;93.45;94399.44;5136730;27;20475;-78
2021/04/20 01:53:48;;;;;;;16.97;11.40;;;;;;;7.21;93.81;94394.34;5136603;27;20446;-78
2021/04/20 01:56:15;;;;;;;17.03;10.50;;;;;;;7.18;93.98;94400.63;5136270;27;20440;-78
2021/04/20 01:58:44;;;;;;;15.37;11.00;;;;;;;7.14;94.17;94394.00;5100290;27;20503;-78
2021/04/20 02:01:12;;;;;;;25.57;11.67;;;;;;;7.14;93.75;94394.81;5136315;27;20449;-78
2021/04/20 02:03:39;;;;;;;22.10;11.70;;;;;;;7.20;94.08;94396.13;5136333;27;20449;-78
2021/04/20 02:06:07;;;;;;;22.80;11.80;;;;;;;7.24;94.16;94394.94;5136696;27;20433;-78
2021/04/20 02:08:34;;;;;;;18.23;11.67;;;;;;;7.30;93.30;94402.28;5135999;27;20535;-78
2021/04/20 02:11:03;;;;;;;12.70;9.60;;;;;;;7.29;92.68;94403.22;5136882;27;20438;-78
2021/04/20 02:13:30;;;;;;;17.00;9.70;;;;;;;7.26;92.39;94408.69;5135987;27;20830;-78
2021/04/20 02:16:00;;;;;;;16.63;10.90;;;;;;;7.22;92.23;94401.22;5135762;27;20441;-78
2021/04/20 02:18:27;;;;;;;11.80;8.83;;;;;;;7.20;92.00;94396.13;5136061;27;20446;-78
2021/04/20 02:20:54;;;;;;;11.37;9.40;;;;;;;7.23;92.13;94398.50;5136126;27;20453;-79
2021/04/20 02:23:21;;;;;;;20.40;9.97;;;;;;;7.20;92.48;94401.34;5135884;27;20952;-78
2021/04/20 02:25:48;;;;;;;14.93;9.90;;;;;;;7.18;92.42;94399.78;5136236;27;20437;-78
2021/04/20 02:28:15;;;;;;;12.27;9.30;;;;;;;7.06;92.76;94406.81;5136125;27;20425;-78
2021/04/20 02:30:42;;;;;;;12.57;9.20;;;;;;;7.11;92.69;94407.28;5116635;27;20445;-78
2021/04/20 02:33:09;;;;;;;10.97;8.57;;;;;;;7.12;93.15;94403.72;5099627;27;20437;-78
2021/04/20 02:35:36;;;;;;;11.00;9.23;;;;;;;7.13;92.90;94402.78;5135621;27;20469;-78
2021/04/20 02:38:02;;;;;;;9.50;8.60;;;;;;;7.11;93.04;94400.28;5099710;27;20442;-78
2021/04/20 02:40:32;;;;;;;9.33;8.17;;;;;;;7.13;92.48;94408.00;5135636;27;20470;-78
2021/04/20 02:42:59;;;;;;;13.87;9.90;;;;;;;7.18;93.24;94407.63;5135683;27;20449;-78
2021/04/20 02:45:27;;;;;;;10.67;8.53;;;;;;;7.19;92.32;94415.31;5135476;27;20442;-78
2021/04/20 02:47:56;;;;;;;9.60;8.67;;;;;;;7.13;91.83;94414.03;5135100;27;20442;-79
2021/04/20 02:50:24;;;;;;;11.80;9.73;;;;;;;7.18;91.78;94415.44;5135687;27;20487;-78
2021/04/20 02:52:53;;;;;;;11.07;9.03;;;;;;;7.23;92.26;94416.78;5135295;27;20442;-78
2021/04/20 02:55:20;;;;;;;11.20;9.43;;;;;;;7.27;91.93;94417.34;5135422;27;20868;-78
2021/04/20 02:57:49;;;;;;;12.13;9.73;;;;;;;7.25;91.37;94409.66;5135212;27;20454;-78
2021/04/20 03:00:18;;;;;;;16.13;10.90;;;;;;;7.21;91.34;94418.63;5116140;27;21042;-78
2021/04/20 03:02:47;;;;;;;10.97;9.73;;;;;;;7.15;91.49;94424.34;5135452;27;20806;-78
2021/04/20 03:05:16;;;;;;;13.13;10.43;;;;;;;7.17;91.73;94424.22;5135479;27;20437;-78
2021/04/20 03:07:43;;;;;;;11.87;9.87;;;;;;;7.18;91.21;94426.72;5135276;27;20437;-78
2021/04/20 03:10:12;;;;;;;10.27;9.27;;;;;;;7.22;91.45;94422.91;5099171;27;20510;-78
2021/04/20 03:12:39;;;;;;;10.07;8.90;;;;;;;7.23;90.80;94424.59;5135249;27;20433;-79
2021/04/20 03:15:08;;;;;;;14.27;9.33;;;;;;;7.21;90.80;94420.44;5134810;27;20449;-78
2021/04/20 03:17:34;;;;;;;10.83;9.10;;;;;;;7.17;90.76;94425.06;5135158;27;20445;-78
2021/04/20 03:20:01;;;;;;;15.37;10.73;;;;;;;7.20;90.96;94423.97;5134910;27;20481;-78
2021/04/20 03:22:28;;;;;;;9.27;8.23;;;;;;;7.16;90.92;94428.63;5134632;27;20445;-78
2021/04/20 03:25:13;;;;;;;9.30;7.90;;;;;;;7.08;91.11;94421.41;5134835;27;20489;-78
2021/04/20 03:27:44;;;;;;;15.10;11.13;;;;;;;7.09;91.13;94425.66;5100616;27;20789;-78
2021/04/20 03:30:13;;;;;;;23.07;11.67;;;;;;;7.09;91.04;94422.22;5134760;27;20788;-78
2021/04/20 03:32:43;;;;;;;13.20;11.37;;;;;;;7.05;91.15;94420.81;5099357;27;20429;-78
2021/04/20 03:35:15;;;;;;;11.33;9.70;;;;;;;7.13;91.69;94431.47;5134362;27;20497;-78
2021/04/20 03:37:49;;;;;;;13.60;9.77;;;;;;;7.15;91.40;94434.78;5134337;27;20441;-77
2021/04/20 03:40:18;;;;;;;15.07;10.57;;;;;;;7.24;91.16;94431.47;5134739;27;20399;-81
2021/04/20 03:42:50;;;;;;;13.90;11.00;;;;;;;7.33;91.28;94435.97;5134269;27;20957;-78
2021/04/20 03:45:21;;;;;;;13.70;10.53;;;;;;;7.41;91.70;94432.72;5134480;27;20847;-79
2021/04/20 03:47:51;;;;;;;14.10;10.27;;;;;;;7.49;90.78;94432.94;5134419;27;20441;-78
2021/04/20 03:50:23;;;;;;;13.70;11.30;;;;;;;7.41;90.31;94432.72;5134344;27;20450;-77
2021/04/20 03:52:55;;;;;;;13.63;10.63;;;;;;;7.43;91.38;94444.69;5134295;27;20926;-78
2021/04/20 03:55:24;;;;;;;13.60;11.17;;;;;;;7.47;90.81;94450.50;5134398;27;20506;-80
2021/04/20 03:57:54;;;;;;;16.07;11.27;;;;;;;7.47;90.13;94453.94;5134721;27;20494;-78
2021/04/20 04:00:22;;;;;;;16.47;12.33;;;;;;;7.39;89.45;94455.50;5134016;27;20488;-77
2021/04/20 04:02:51;;;;;;;19.90;12.23;;;;;;;7.42;89.66;94456.09;5133971;27;20936;-77
2021/04/20 04:05:20;;;;;;;13.53;10.50;;;;;;;7.28;89.52;94452.94;5133959;27;20483;-77
2021/04/20 04:07:51;;;;;;;15.87;11.27;;;;;;;7.26;89.75;94466.09;5134228;27;20599;-77
2021/04/20 04:10:19;;;;;;;16.80;12.33;;;;;;;7.35;90.10;94467.16;5134089;27;20451;-77
2021/04/20 04:12:50;;;;;;;14.60;11.33;;;;;;;7.36;90.26;94469.63;5134197;27;20437;-77
2021/04/20 04:15:18;;;;;;;14.93;11.13;;;;;;;7.25;89.99;94474.88;5114524;28;20514;-77
2021/04/20 04:17:46;;;;;;;18.33;12.07;;;;;;;7.25;89.87;94466.22;5133946;27;20450;-77
2021/04/20 04:20:14;;;;;;;414.90;231.57;;;;;;;8.45;100.00;94456.44;5133840;27;20481;-78
2021/04/20 04:22:48;;;;;;;52.37;32.67;;;;;;;10.28;95.25;94463.22;5133916;27;20451;-79
2021/04/20 04:25:19;;;;;;;16.30;11.30;;;;;;;10.90;79.86;94472.38;5134067;27;20455;-78
2021/04/20 04:27:50;;;;;;;14.60;12.00;;;;;;;10.55;75.32;94474.66;5133973;27;20449;-78
2021/04/20 04:30:18;;;;;;;17.17;11.73;;;;;;;10.09;76.37;94490.22;5134459;27;20466;-78
2021/04/20 04:32:46;;;;;;;15.37;11.57;;;;;;;9.34;77.73;94488.16;5137461;27;20456;-79
2021/04/20 04:35:13;;;;;;;15.37;12.67;;;;;;;9.06;80.24;94493.13;5134100;27;20472;-79
2021/04/20 04:37:41;;;;;;;17.40;13.17;;;;;;;8.86;81.98;94486.13;5097821;28;20431;-79
2021/04/20 04:40:09;;;;;;;15.70;11.83;;;;;;;8.54;82.88;94486.22;5134249;27;20487;-79
2021/04/20 04:42:36;;;;;;;15.37;11.80;;;;;;;8.13;84.52;94477.38;5134018;27;20443;-79
2021/04/20 04:45:06;;;;;;;13.80;10.90;;;;;;;7.88;85.98;94488.16;5114715;28;20450;-79
2021/04/20 04:47:33;;;;;;;21.40;12.63;;;;;;;7.74;87.18;94486.63;5133837;27;20886;-79
2021/04/20 04:50:05;;;;;;;18.60;14.47;;;;;;;7.62;88.21;94485.84;5134139;27;20443;-79
2021/04/20 04:52:32;;;;;;;18.53;13.20;;;;;;;7.63;89.24;94497.13;5134002;27;20426;-79
2021/04/20 04:54:59;;;;;;;18.80;12.53;;;;;;;7.59;89.69;94493.94;5098208;28;20443;-79
2021/04/20 04:57:26;;;;;;;17.80;12.37;;;;;;;7.54;89.56;94492.63;5137449;27;20867;-79
2021/04/20 04:59:54;;;;;;;17.57;13.10;;;;;;;7.55;89.52;94492.53;5137229;27;20481;-79
2021/04/20 05:02:22;;;;;;;18.40;13.10;;;;;;;7.55;89.39;94491.69;5137451;27;20442;-79
2021/04/20 05:04:48;;;;;;;20.10;13.63;;;;;;;7.58;89.30;94497.50;5137654;27;20853;-79
2021/04/20 05:07:15;;;;;;;19.13;14.55;;;;;;;7.64;89.57;94499.63;5136541;27;20820;-77
2021/04/20 05:09:42;;;;;;;17.27;11.67;;;;;;;7.67;89.40;94508.97;5136657;27;20204;-77
2021/04/20 05:12:10;;;;;;;16.40;12.67;;;;;;;7.69;89.26;94501.84;5136886;27;20449;-78
2021/04/20 05:14:37;;;;;;;21.33;15.30;;;;;;;7.75;89.36;94506.56;5136006;27;20459;-77
2021/04/20 05:17:05;;;;;;;20.17;14.60;;;;;;;8.59;91.87;94510.19;5136985;27;20203;-81
2021/04/20 05:19:33;;;;;;;21.70;15.93;;;;;;;9.54;87.81;94524.75;5137056;27;20540;-79
2021/04/20 05:22:01;;;;;;;17.70;13.70;;;;;;;9.13;81.88;94520.44;5136670;27;20454;-77
2021/04/20 05:24:28;;;;;;;19.67;14.00;;;;;;;8.80;83.82;94512.81;5137044;27;20443;-78
2021/04/20 05:26:55;;;;;;;21.10;15.13;;;;;;;8.65;84.60;94531.44;5136899;27;20519;-78
2021/04/20 05:29:21;;;;;;;19.60;13.90;;;;;;;8.35;86.42;94521.72;5136612;27;20449;-78
2021/04/20 05:31:48;;;;;;;21.83;14.17;;;;;;;8.28;87.15;94528.38;5136264;27;20443;-79
2021/04/20 05:34:15;;;;;;;24.30;15.43;;;;;;;8.18;88.26;94537.09;5135702;27;20447;-79
2021/04/20 05:36:43;;;;;;;22.57;15.53;;;;;;;8.11;89.19;94531.56;5136882;27;20463;-79
2021/04/20 05:39:11;;;;;;;24.93;17.00;;;;;;;8.02;89.73;94534.88;5087057;28;20520;-78
2021/04/20 05:41:39;;;;;;;28.90;16.90;;;;;;;7.93;90.19;94536.47;5115875;28;20447;-79
2021/04/20 05:44:08;;;;;;;27.07;19.13;;;;;;;7.93;91.08;94539.06;5116107;28;20430;-79
2021/04/20 05:46:36;;;;;;;22.57;16.97;;;;;;;7.89;90.31;94535.06;5115767;28;20443;-79
2021/04/20 05:49:04;;;;;;;22.83;15.20;;;;;;;7.92;92.16;94539.19;5116312;28;20439;-79
2021/04/20 05:51:31;;;;;;;22.50;15.30;;;;;;;7.95;91.53;94539.78;5115727;28;20482;-79
2021/04/20 05:53:59;;;;;;;22.83;15.20;;;;;;;7.97;90.30;94543.09;5115812;28;20446;-79
2021/04/20 05:56:25;;;;;;;21.23;17.13;;;;;;;8.03;89.54;94539.16;5114330;28;20446;-79
2021/04/20 05:58:53;;;;;;;19.83;15.50;;;;;;;8.15;89.80;94550.41;5116205;28;20198;-79
2021/04/20 06:01:20;;;;;;;19.87;15.00;;;;;;;8.13;89.48;94547.94;5116136;28;20431;-79
2021/04/20 06:03:48;;;;;;;22.53;15.23;;;;;;;8.14;88.84;94546.97;5115828;28;20436;-79
2021/04/20 06:06:18;;;;;;;21.03;15.40;;;;;;;8.18;88.19;94558.00;5115238;28;20920;-79
2021/04/20 06:08:45;;;;;;;25.40;16.40;;;;;;;8.25;88.07;94548.72;5115681;28;20439;-79
2021/04/20 06:11:13;;;;;;;24.30;16.57;;;;;;;8.37;88.29;94552.97;5115583;28;20495;-79
2021/04/20 06:13:39;;;;;;;20.93;15.27;;;;;;;8.45;87.60;94547.97;5130363;27;20475;-81
2021/04/20 06:16:07;;;;;;;37.57;17.43;;;;;;;8.55;86.33;94561.94;5132206;27;20508;-82
2021/04/20 06:18:34;;;;;;;24.17;18.60;;;;;;;8.62;85.33;94557.84;5135991;27;20816;-82
2021/04/20 06:21:01;;;;;;;20.27;15.57;;;;;;;8.75;87.06;94557.69;5135405;27;20474;-82
2021/04/20 06:23:29;;;;;;;27.77;18.47;;;;;;;8.76;84.76;94556.72;5135683;27;20530;-80
2021/04/20 06:26:00;;;;;;;26.90;19.33;;;;;;;8.85;84.62;94557.75;5135695;27;20442;-80
2021/04/20 06:28:29;;;;;;;25.97;19.73;;;;;;;8.92;85.71;94557.09;5135476;27;20823;-80
2021/04/20 06:30:57;;;;;;;25.23;16.47;;;;;;;8.98;84.36;94559.22;5135508;27;20957;-80
2021/04/20 06:33:24;;;;;;;35.90;21.17;;;;;;;9.11;84.31;94558.16;5135182;27;20448;-80
2021/04/20 06:35:51;;;;;;;30.13;19.83;;;;;;;9.16;84.75;94561.22;5135008;27;20888;-79
2021/04/20 06:38:18;;;;;;;33.40;19.53;;;;;;;9.22;83.04;94564.16;5114980;28;20452;-80
2021/04/20 06:40:47;;;;;;;25.57;18.30;;;;;;;9.34;82.29;94569.31;5107397;27;20480;-80
2021/04/20 06:43:15;;;;;;;23.43;17.57;;;;;;;9.37;80.76;94574.28;5135385;27;20447;-80
2021/04/20 06:45:49;;;;;;;20.00;14.70;;;;;;;9.62;79.09;94564.22;5135235;27;20444;-79
2021/04/20 06:48:24;;;;;;;28.00;18.57;;;;;;;10.11;78.78;94564.31;5135285;27;20448;-81
2021/04/20 06:50:55;;;;;;;20.47;13.77;;;;;;;10.67;74.73;94572.41;5135046;27;20500;-79
2021/04/20 06:53:26;;;;;;;17.43;13.90;;;;;;;11.11;73.00;94568.38;5136735;27;20444;-80
2021/04/20 06:56:04;;;;;;;33.73;16.17;;;;;;;11.35;70.54;94565.28;5138522;27;20462;-79
2021/04/20 06:58:41;;;;;;;17.77;13.80;;;;;;;11.70;69.21;94572.47;5139133;27;20437;-79
2021/04/20 07:01:16;;;;;;;13.60;11.37;;;;;;;11.78;67.50;94569.16;5137028;27;20888;-81
2021/04/20 07:03:52;;;;;;;16.47;12.60;;;;;;;12.20;68.70;94574.75;5139761;27;20907;-81
2021/04/20 07:06:23;;;;;;;20.13;13.77;;;;;;;12.40;66.81;94571.03;5135670;27;20453;-80
2021/04/20 07:08:59;;;;;;;16.43;13.87;;;;;;;12.73;64.83;94576.63;5135115;27;20450;-82
2021/04/20 07:11:28;;;;;;;21.40;16.17;;;;;;;13.05;63.58;94569.97;5135380;27;20450;-83
2021/04/20 07:13:58;;;;;;;26.50;13.70;;;;;;;13.32;62.54;94567.25;5134976;27;20432;-80
2021/04/20 07:16:37;;;;;;;16.80;12.70;;;;;;;13.37;58.52;94562.31;5135246;27;20456;-81
2021/04/20 07:19:25;;;;;;;18.13;13.13;;;;;;;13.42;59.43;94569.78;5133223;27;20450;-81
2021/04/20 07:22:12;;;;;;;16.63;12.50;;;;;;;13.52;59.32;94573.13;5128956;27;20536;-80
2021/04/20 07:25:01;;;;;;;14.53;12.10;;;;;;;13.73;58.94;94567.47;5132839;27;20446;-80
2021/04/20 07:27:35;;;;;;;15.43;12.50;;;;;;;14.10;57.98;94578.50;5134603;27;20447;-80
2021/04/20 07:30:13;;;;;;;14.87;11.40;;;;;;;14.30;57.91;94570.34;5134833;27;20517;-80
2021/04/20 07:33:10;;;;;;;13.57;12.13;;;;;;;14.14;57.24;94579.84;5134675;27;20442;-80
2021/04/20 07:35:43;;;;;;;17.20;14.00;;;;;;;14.18;56.02;94575.09;5066852;28;20490;-80
2021/04/20 07:38:21;;;;;;;16.10;13.33;;;;;;;14.69;58.27;94575.91;5072871;28;20438;-83
2021/04/20 07:40:59;;;;;;;19.07;15.10;;;;;;;14.76;57.11;94569.81;5071714;28;20485;-81
2021/04/20 07:43:45;;;;;;;15.57;12.80;;;;;;;14.88;55.29;94572.97;5071214;28;20527;-80
2021/04/20 07:46:16;;;;;;;16.27;14.40;;;;;;;14.73;53.34;94572.75;5070937;28;20452;-80
2021/04/20 07:48:55;;;;;;;16.83;13.17;;;;;;;14.88;54.21;94576.44;5070841;28;20568;-80
2021/04/20 07:51:29;;;;;;;31.63;17.47;;;;;;;14.65;53.69;94572.75;5070790;28;20450;-80
2021/04/20 07:54:06;;;;;;;16.97;13.80;;;;;;;14.40;58.19;94573.66;5070698;28;21278;-80
2021/04/20 07:56:43;;;;;;;16.73;12.47;;;;;;;13.89;52.80;94580.75;5070833;28;20456;-81
2021/04/20 07:59:15;;;;;;;17.10;13.00;;;;;;;13.93;53.00;94585.56;5069315;28;20547;-82
2021/04/20 08:01:52;;;;;;;18.70;12.93;;;;;;;13.85;52.68;94577.56;5058412;28;20431;-79
2021/04/20 08:04:49;;;;;;;24.53;16.80;;;;;;;14.26;53.40;94583.03;5070974;28;20463;-78
2021/04/20 08:07:22;;;;;;;17.73;11.80;;;;;;;14.45;51.51;94580.13;4991048;28;20522;-77
2021/04/20 08:09:50;;;;;;;15.13;11.30;;;;;;;14.42;51.86;94584.88;4990330;28;20500;-80
2021/04/20 08:12:21;;;;;;;15.30;13.00;;;;;;;14.53;52.24;94590.75;5005632;28;20452;-80
2021/04/20 08:14:52;;;;;;;15.47;12.20;;;;;;;14.37;52.14;94585.38;5068069;28;20472;-78
2021/04/20 08:17:29;;;;;;;18.87;14.23;;;;;;;14.27;51.67;94600.53;5069970;28;20445;-78
2021/04/20 08:20:00;;;;;;;18.67;12.87;;;;;;;13.70;51.56;94589.72;5070352;28;20490;-79
2021/04/20 08:22:28;;;;;;;18.87;13.43;;;;;;;13.63;52.39;94588.69;5070497;28;20538;-79
2021/04/20 08:25:00;;;;;;;15.03;12.07;;;;;;;13.80;55.51;94587.78;5066541;28;20937;-80
2021/04/20 08:27:33;;;;;;;22.83;13.40;;;;;;;13.80;52.16;94598.31;5070213;28;20441;-79
2021/04/20 08:30:06;;;;;;;18.60;14.20;;;;;;;13.57;53.77;94587.47;5071865;28;20455;-79
2021/04/20 08:32:34;;;;;;;16.20;11.60;;;;;;;13.20;52.79;94589.53;5074366;28;20463;-79
2021/04/20 08:35:09;;;;;;;15.17;12.33;;;;;;;13.00;57.11;94600.22;5040239;28;20482;-78
2021/04/20 08:37:49;;;;;;;22.57;15.07;;;;;;;12.99;55.80;94595.91;5074143;28;20459;-79
2021/04/20 08:40:22;;;;;;;19.63;14.70;;;;;;;13.32;56.32;94598.88;5021931;28;20885;-80
2021/04/20 08:42:54;;;;;;;21.83;15.23;;;;;;;13.53;56.01;94591.41;5099215;27;20438;-79
2021/04/20 08:45:25;;;;;;;22.23;15.90;;;;;;;13.69;54.68;94595.16;5137085;27;20993;-80
2021/04/20 08:48:03;;;;;;;20.47;15.50;;;;;;;14.00;54.06;94591.00;5137650;27;21534;-79
2021/04/20 08:50:34;;;;;;;32.57;19.90;;;;;;;14.30;52.91;94583.53;5117383;27;20458;-79
2021/04/20 08:53:19;;;;;;;18.23;14.57;;;;;;;14.38;53.09;94594.13;5125320;27;21005;-79
2021/04/20 08:55:52;;;;;;;25.40;15.70;;;;;;;14.32;53.14;94592.13;5137352;27;20553;-79
2021/04/20 08:58:43;;;;;;;22.15;16.70;;;;;;;14.30;53.42;94600.19;5136354;27;20452;-78
2021/04/20 09:01:23;;;;;;;20.00;15.03;;;;;;;14.01;51.84;94602.38;5116999;27;20271;-77
2021/04/20 09:04:00;;;;;;;19.03;15.53;;;;;;;13.79;52.04;94598.47;5132269;27;20976;-82
2021/04/20 09:06:34;;;;;;;27.63;17.33;;;;;;;13.66;53.07;94604.19;5102601;27;20444;-83
2021/04/20 09:09:06;;;;;;;20.63;16.30;;;;;;;13.45;53.37;94599.28;5138057;27;20448;-83
2021/04/20 09:11:36;;;;;;;20.13;15.80;;;;;;;13.33;53.50;94600.53;5138094;27;20432;-84
2021/04/20 09:14:07;;;;;;;19.90;14.90;;;;;;;13.18;53.88;94602.03;5136844;27;20439;-81
2021/04/20 09:16:45;;;;;;;20.93;16.23;;;;;;;13.04;54.19;94608.66;5136967;27;20451;-80
2021/04/20 09:19:25;;;;;;;30.27;18.63;;;;;;;12.77;53.85;94604.31;5136489;27;20508;-81
2021/04/20 09:22:09;;;;;;;31.70;22.63;;;;;;;12.74;55.74;94606.41;5136612;27;20995;-78
2021/04/20 09:24:43;;;;;;;25.27;17.43;;;;;;;12.59;56.16;94606.09;5080502;28;20950;-78
2021/04/20 09:27:15;;;;;;;25.37;19.53;;;;;;;12.38;56.71;94609.81;5124772;27;20446;-80
2021/04/20 09:29:47;;;;;;;18.87;14.23;;;;;;;12.30;59.85;94616.78;5136114;27;20477;-80
2021/04/20 09:32:19;;;;;;;22.07;14.00;;;;;;;12.17;59.18;94618.94;5136144;27;20454;-80
2021/04/20 09:34:48;;;;;;;23.53;15.57;;;;;;;12.03;59.52;94609.72;5125042;27;20500;-80
2021/04/20 09:37:16;;;;;;;18.07;15.57;;;;;;;12.05;59.49;94607.78;5115964;28;20507;-80
2021/04/20 09:39:46;;;;;;;26.53;14.23;;;;;;;12.05;59.98;94611.25;5115777;28;20479;-79
2021/04/20 09:42:15;;;;;;;20.93;15.30;;;;;;;12.17;59.33;94611.88;5115273;28;20830;-80
2021/04/20 09:44:54;;;;;;;21.07;15.63;;;;;;;12.17;59.32;94606.63;5116161;28;20442;-80
2021/04/20 09:47:43;;;;;;;23.70;15.07;;;;;;;12.34;60.10;94605.00;5116073;27;20443;-79
2021/04/20 09:50:17;;;;;;;20.17;15.40;;;;;;;12.74;58.84;94606.41;5096697;28;20503;-79
2021/04/20 09:52:54;;;;;;;20.93;15.70;;;;;;;12.99;57.89;94603.00;5079637;28;20434;-81
2021/04/20 09:55:28;;;;;;;18.87;14.00;;;;;;;13.20;57.93;94595.63;5115616;28;20481;-80
2021/04/20 09:57:57;;;;;;;24.67;16.50;;;;;;;13.49;58.87;94600.63;5135270;27;20453;-79
2021/04/20 10:00:24;;;;;;;22.27;14.40;;;;;;;13.71;53.64;94595.81;5136076;27;20554;-81
2021/04/20 10:03:11;;;;;;;20.10;13.10;;;;;;;13.81;52.33;94601.78;5135933;27;20434;-81
2021/04/20 10:05:57;;;;;;;23.60;13.63;;;;;;;13.96;51.78;94600.22;5136041;27;20451;-79
2021/04/20 10:08:33;;;;;;;18.80;13.77;;;;;;;14.09;54.88;94597.16;5135811;27;20446;-81
2021/04/20 10:11:04;;;;;;;19.23;14.07;;;;;;;14.21;52.13;94594.06;5135486;27;20524;-81
2021/04/20 10:14:11;;;;;;;17.27;12.17;;;;;;;14.16;50.82;94585.78;5135951;27;20441;-83
2021/04/20 10:16:48;;;;;;;16.17;14.47;;;;;;;14.03;51.10;94577.50;5092926;28;20799;-81
2021/04/20 10:19:24;;;;;;;22.63;13.27;;;;;;;14.07;52.49;94583.28;5092381;28;20446;-79
2021/04/20 10:22:02;;;;;;;17.20;13.73;;;;;;;14.05;51.28;94577.34;5092424;28;20947;-80
2021/04/20 10:24:30;;;;;;;19.73;13.87;;;;;;;13.89;51.33;94580.75;5041776;28;20451;-80
2021/04/20 10:27:02;;;;;;;15.67;11.87;;;;;;;13.89;50.83;94580.75;5092407;28;20456;-79
2021/04/20 10:29:34;;;;;;;16.20;13.20;;;;;;;13.89;51.38;94570.19;5086716;28;20544;-79
2021/04/20 10:32:04;;;;;;;18.47;11.80;;;;;;;13.91;50.58;94563.78;5092274;28;20541;-79
2021/04/20 10:34:31;;;;;;;18.83;12.40;;;;;;;13.89;50.94;94570.19;5091026;28;20476;-80
2021/04/20 10:36:59;;;;;;;18.87;13.80;;;;;;;13.90;51.89;94577.97;5091369;28;20447;-81
2021/04/20 10:39:27;;;;;;;20.57;14.53;;;;;;;14.09;53.87;94582.13;5091236;28;20450;-80
2021/04/20 10:41:55;;;;;;;17.47;14.20;;;;;;;14.27;54.00;94574.97;5041615;28;20510;-77
2021/04/20 10:44:24;;;;;;;23.30;14.70;;;;;;;14.24;52.75;94577.09;5091566;28;20432;-78
2021/04/20 10:46:53;;;;;;;22.03;14.13;;;;;;;13.97;51.77;94572.03;5091397;28;20462;-79
2021/04/20 10:49:21;;;;;;;20.40;15.40;;;;;;;13.78;53.88;94584.47;5091460;28;20503;-78
2021/04/20 10:51:54;;;;;;;18.00;13.33;;;;;;;13.64;51.88;94583.25;5094504;27;20785;-78
2021/04/20 10:54:22;;;;;;;21.67;14.17;;;;;;;13.54;53.26;94576.41;5133741;27;20445;-78
2021/04/20 10:56:52;;;;;;;18.53;14.10;;;;;;;13.58;54.73;94575.13;5134706;27;20446;-78
2021/04/20 10:59:25;;;;;;;15.30;13.07;;;;;;;13.61;53.23;94578.31;5133093;27;20455;-78
2021/04/20 11:01:53;;;;;;;24.10;13.80;;;;;;;13.61;52.68;94578.31;5132299;27;20485;-79
2021/04/20 11:04:22;;;;;;;19.83;13.70;;;;;;;13.68;53.70;94572.41;5134397;27;20851;-79
2021/04/20 11:07:17;;;;;;;14.07;12.50;;;;;;;13.84;52.59;94575.94;5123318;27;20447;-79
2021/04/20 11:09:44;;;;;;;17.10;13.50;;;;;;;13.95;51.98;94569.56;5118025;27;20987;-78
2021/04/20 11:12:18;;;;;;;17.97;13.00;;;;;;;13.92;49.77;94568.06;5117303;27;20832;-79
2021/04/20 11:14:47;;;;;;;18.17;12.93;;;;;;;14.06;51.10;94566.63;5134691;27;20447;-78
2021/04/20 11:17:21;;;;;;;20.50;15.67;;;;;;;14.16;51.75;94559.41;5134684;27;20446;-78
2021/04/20 11:19:55;;;;;;;22.73;15.37;;;;;;;14.34;54.62;94547.91;5134733;27;20829;-79
2021/04/20 11:22:24;;;;;;;17.67;13.37;;;;;;;14.43;50.18;94557.53;5133848;27;20437;-80
2021/04/20 11:24:58;;;;;;;13.93;12.53;;;;;;;14.58;51.62;94555.94;5134036;27;20494;-79
2021/04/20 11:27:30;;;;;;;18.97;14.10;;;;;;;14.71;49.22;94553.63;5094622;28;20443;-80
2021/04/20 11:30:04;;;;;;;14.93;11.80;;;;;;;14.68;46.81;94550.47;5122994;27;20445;-79
2021/04/20 11:32:32;;;;;;;13.70;11.77;;;;;;;14.70;47.15;94546.69;5114936;27;20448;-80
2021/04/20 11:35:06;;;;;;;14.07;12.57;;;;;;;14.82;49.78;94550.69;5134116;27;20495;-82
2021/04/20 11:37:35;;;;;;;14.40;11.77;;;;;;;14.93;47.38;94552.16;5133345;27;20459;-81
2021/04/20 11:40:06;;;;;;;12.87;11.57;;;;;;;15.04;47.06;94551.03;5117436;27;20984;-81